YHM weather

John C. Munro Hamilton International Airport
Hamilton, Ontario, Canada

Public forecast

Using degrees Celsius for public forecast. Weather courtesy of forecast.io.

Current aviation weather report (METAR) for John C. Munro Hamilton International Airport

Retrieved 2020/07/16 17:00 UTC (45 minutes ago):

CYHM 161700Z 13006KT 100V160 8SM -RA FEW017 BKN030 OVC070 23/22 A3002 RMK SC1SC4AC3 SLP165 DENSITY ALT 1900FT

Aviation forecast (TAF) for John C. Munro Hamilton International Airport

Retrieved 2020/07/16 12:39 UTC (5 hours ago):

TAF CYHM 161138Z 1612/1712 16006KT P6SM FEW030 SCT140 BKN220 TEMPO 1612/1615 P6SM -SHRA SCT030 BKN070 FM161500 15008KT P6SM -SHRA OVC070 TEMPO 1615/1622 4SM SHRA BR BKN010 OVC040 PROB30 1616/1621 VRB15G30KT 2SM +TSRA BR BKN005 OVC040CB FM162200 15008KT P6SM FEW006 OVC030 TEMPO 1622/1705 2SM -DZ BR BKN005 OVC015 FM170500 VRB03KT 2SM BR OVC004 PROB30 1705/1711 1/4SM FG VV001 RMK NXT FCST BY 161800Z